Skip Navigation LinksHome page > Weather > Current weather Skip Navigation Links

Current Weather

Williamsport Rgnl, Williamsport, Penn.

For information only: do not use for flight planning or navigation.
Latest weather
Observation time Monday, September 25, 2017 5:54 PM EDT
Local time Monday, September 25, 2017 6:28 PM EDT
Flight conditions Visual Meteorological Conditions
Winds
Wind direction Southwest (220°)
Wind speed 3 mph
Visibility 10 mi.
Sky condition
Ceiling unlimited
Sky clear
Temperature 87°F
Dewpoint 70°F
Altimeter 29.99 in.Hg
Derived measurements
Relative humidity 57%
Heat index 92°F
Density altitude 2574 ft.
Sea-level pressure 29.98 in.Hg
Remarks
Automated weather observing station with precipitation discriminator.
METAR KIPT 252154Z 22003KT 10SM CLR 31/21 A2999 RMK AO2 SLP152 T03060211

Settings

Location code

InnerDrive.Weather 4.0.6144.1 Release CLR 4.0.30319.36366
Copyright ©2015 Inner Drive Technology. All rights reserved. Portions Copyright ©1986-2015 David Braverman.

Find weather

Site navigation


Skip Navigation Links

Place info

Page info

PayPal - The safer, easier way to pay online!

Return home.

Copyright ©2017 Inner Drive Technology. Purveyors of fine, hand-crafted computer software. Page printed 2017-09-25T22:28:49 UTC.